createdAt,value
2017-03-15T00:00:55.981Z,0
2017-03-15T00:02:06.277Z,0
2017-03-15T00:03:16.545Z,0
2017-03-15T00:04:26.809Z,0
2017-03-15T00:05:39.077Z,0
2017-03-15T00:06:49.353Z,0
2017-03-15T00:07:59.301Z,0
2017-03-15T00:09:09.546Z,0
2017-03-15T00:10:19.802Z,0
2017-03-15T00:11:30.455Z,0
2017-03-15T00:12:40.396Z,0
2017-03-15T00:13:50.033Z,0
2017-03-15T00:14:59.980Z,0
2017-03-15T00:16:10.236Z,0
2017-03-15T00:17:20.178Z,0
2017-03-15T00:18:30.438Z,0
2017-03-15T00:19:40.718Z,0
2017-03-15T00:20:50.982Z,0
2017-03-15T00:22:01.245Z,0
2017-03-15T00:23:11.445Z,0
2017-03-15T00:24:21.706Z,0
2017-03-15T00:25:31.971Z,0
2017-03-15T00:26:41.602Z,0
2017-03-15T00:27:51.241Z,0
2017-03-15T00:29:01.509Z,0
2017-03-15T00:30:11.140Z,0
2017-03-15T00:31:21.422Z,0
2017-03-15T00:32:31.368Z,0
2017-03-15T00:33:41.316Z,0
2017-03-15T00:34:51.575Z,0
2017-03-15T00:36:01.856Z,0
2017-03-15T00:37:11.800Z,0
2017-03-15T00:38:22.057Z,0
2017-03-15T00:39:31.999Z,0
2017-03-15T00:40:42.257Z,0
2017-03-15T00:41:52.207Z,0
2017-03-15T00:43:02.496Z,0
2017-03-15T00:44:12.759Z,0
2017-03-15T00:45:23.024Z,0
2017-03-15T00:46:32.688Z,0
2017-03-15T00:47:42.634Z,0
2017-03-15T00:48:52.271Z,0
2017-03-15T00:50:02.537Z,0
2017-03-15T00:51:12.798Z,0
2017-03-15T00:52:22.745Z,0
2017-03-15T00:53:33.023Z,0
2017-03-15T00:54:43.286Z,0
2017-03-15T00:55:53.546Z,0
2017-03-15T00:57:03.812Z,0
2017-03-15T00:58:16.168Z,0
2017-03-15T00:59:25.808Z,0
2017-03-15T01:00:36.080Z,0
2017-03-15T01:01:46.336Z,0
2017-03-15T01:02:56.596Z,0
2017-03-15T01:04:06.550Z,0
2017-03-15T01:05:16.496Z,0
2017-03-15T01:06:26.443Z,0
2017-03-15T01:07:36.072Z,0
2017-03-15T01:08:46.361Z,0
2017-03-15T01:09:55.998Z,0
2017-03-15T01:11:05.947Z,0
2017-03-15T01:12:16.205Z,0
2017-03-15T01:13:26.465Z,0
2017-03-15T01:14:36.417Z,0
2017-03-15T01:15:46.684Z,0
2017-03-15T01:16:56.948Z,0
2017-03-15T01:18:06.605Z,0
2017-03-15T01:19:16.865Z,0
2017-03-15T01:20:26.827Z,0
2017-03-15T01:21:36.152Z,0
2017-03-15T01:22:46.412Z,0
2017-03-15T01:23:56.047Z,0
2017-03-15T01:25:06.306Z,0
2017-03-15T01:26:16.558Z,0
2017-03-15T01:27:28.818Z,0
2017-03-15T01:28:39.086Z,0
2017-03-15T01:29:49.350Z,0
2017-03-15T01:30:59.617Z,0
2017-03-15T01:32:09.885Z,0
2017-03-15T01:33:20.142Z,0
2017-03-15T01:34:30.400Z,0
2017-03-15T01:35:40.662Z,0
2017-03-15T01:36:50.917Z,0
2017-03-15T01:38:00.878Z,0
2017-03-15T01:39:10.827Z,0
2017-03-15T01:40:21.096Z,0
2017-03-15T01:41:31.038Z,0
2017-03-15T01:42:41.314Z,0
2017-03-15T01:43:51.574Z,0
2017-03-15T01:45:01.529Z,0
2017-03-15T01:46:11.788Z,0
2017-03-15T01:47:21.438Z,0
2017-03-15T01:48:31.702Z,0
2017-03-15T01:49:41.650Z,0
2017-03-15T01:50:51.595Z,0
2017-03-15T01:52:01.860Z,0
2017-03-15T01:53:12.118Z,0
2017-03-15T01:54:22.377Z,0
2017-03-15T01:55:32.325Z,0
2017-03-15T01:56:42.279Z,0
2017-03-15T01:57:52.538Z,0
2017-03-15T01:59:02.811Z,0
2017-03-15T02:00:13.074Z,0
2017-03-15T02:01:23.338Z,0
2017-03-15T02:02:33.608Z,0
2017-03-15T02:03:43.866Z,0
2017-03-15T02:04:54.133Z,0
2017-03-15T02:06:04.396Z,0
2017-03-15T02:07:14.658Z,0
2017-03-15T02:08:24.918Z,0
2017-03-15T02:09:35.179Z,0
2017-03-15T02:10:44.823Z,0
2017-03-15T02:11:55.081Z,0
2017-03-15T02:13:05.028Z,0
2017-03-15T02:14:15.288Z,0
2017-03-15T02:15:25.553Z,0
2017-03-15T02:16:35.823Z,0
2017-03-15T02:17:45.771Z,0
2017-03-15T02:18:55.710Z,0
2017-03-15T02:20:05.974Z,0
2017-03-15T02:21:15.919Z,0
2017-03-15T02:22:26.178Z,0
2017-03-15T02:23:36.463Z,0
2017-03-15T02:24:46.411Z,0
2017-03-15T02:25:56.678Z,0
2017-03-15T02:27:06.940Z,0
2017-03-15T02:28:16.884Z,0
2017-03-15T02:29:27.157Z,0
2017-03-15T02:30:37.415Z,0
2017-03-15T02:31:47.672Z,0
2017-03-15T02:32:57.616Z,0
2017-03-15T02:34:07.247Z,0
2017-03-15T02:35:17.499Z,0
2017-03-15T02:36:27.757Z,0
2017-03-15T02:37:37.706Z,0
2017-03-15T02:38:47.978Z,0
2017-03-15T02:39:57.931Z,0
2017-03-15T02:41:08.193Z,0
2017-03-15T02:42:18.454Z,0
2017-03-15T02:43:28.726Z,0
2017-03-15T02:44:38.991Z,0
2017-03-15T02:45:48.944Z,0
2017-03-15T02:46:58.911Z,0
2017-03-15T02:48:09.176Z,0
2017-03-15T02:49:19.445Z,0
2017-03-15T02:50:29.081Z,0
2017-03-15T02:51:39.033Z,0
2017-03-15T02:52:49.293Z,0
2017-03-15T02:53:59.565Z,0
2017-03-15T02:55:09.839Z,0
2017-03-15T02:56:20.099Z,0
2017-03-15T02:57:30.040Z,0
2017-03-15T02:58:40.303Z,0
2017-03-15T02:59:50.565Z,0
2017-03-15T03:01:00.200Z,0
2017-03-15T03:02:10.137Z,0
2017-03-15T03:03:19.767Z,0
2017-03-15T03:04:30.026Z,0
2017-03-15T03:05:39.980Z,0
2017-03-15T03:06:50.246Z,0
2017-03-15T03:08:00.523Z,0
2017-03-15T03:09:10.784Z,0
2017-03-15T03:10:21.048Z,0
2017-03-15T03:11:31.309Z,0
2017-03-15T03:12:40.950Z,0
2017-03-15T03:13:50.905Z,0
2017-03-15T03:15:01.166Z,0
2017-03-15T03:16:11.439Z,0
2017-03-15T03:17:21.417Z,0
2017-03-15T03:18:31.676Z,0
2017-03-15T03:19:41.626Z,0
2017-03-15T03:20:51.887Z,0
2017-03-15T03:22:02.148Z,0
2017-03-15T03:23:12.092Z,0
2017-03-15T03:24:22.032Z,0
2017-03-15T03:25:32.304Z,0
2017-03-15T03:26:41.936Z,0
2017-03-15T03:27:52.197Z,0
2017-03-15T03:29:02.455Z,0
2017-03-15T03:30:12.737Z,0
2017-03-15T03:31:23.000Z,0
2017-03-15T03:32:33.259Z,0
2017-03-15T03:33:43.521Z,0
2017-03-15T03:34:53.466Z,0
2017-03-15T03:36:03.722Z,0
2017-03-15T03:37:13.348Z,0
2017-03-15T03:38:23.609Z,0
2017-03-15T03:39:33.864Z,0
2017-03-15T03:40:44.124Z,0
2017-03-15T03:41:54.390Z,0
2017-03-15T03:43:04.667Z,0
2017-03-15T03:44:14.926Z,0
2017-03-15T03:45:25.191Z,0
2017-03-15T03:46:35.136Z,0
2017-03-15T03:47:45.404Z,0
2017-03-15T03:48:55.346Z,0
2017-03-15T03:50:05.301Z,0
2017-03-15T03:51:15.246Z,0
2017-03-15T03:52:25.508Z,0
2017-03-15T03:53:35.773Z,0
2017-03-15T03:54:46.044Z,0
2017-03-15T03:55:56.307Z,0
2017-03-15T03:57:06.257Z,0
2017-03-15T03:58:16.210Z,0
2017-03-15T03:59:26.159Z,0
2017-03-15T04:00:36.113Z,0
2017-03-15T04:01:46.386Z,0
2017-03-15T04:02:56.647Z,0
2017-03-15T04:04:06.908Z,0
2017-03-15T04:05:17.169Z,0
2017-03-15T04:06:26.799Z,0
2017-03-15T04:07:37.077Z,0
2017-03-15T04:08:47.350Z,0
2017-03-15T04:09:57.604Z,0
2017-03-15T04:11:07.857Z,0
2017-03-15T04:12:17.812Z,0
2017-03-15T04:13:27.757Z,0
2017-03-15T04:14:37.391Z,0
2017-03-15T04:15:47.028Z,0
2017-03-15T04:16:56.977Z,0
2017-03-15T04:18:07.242Z,0
2017-03-15T04:19:17.193Z,0
2017-03-15T04:20:27.456Z,0
2017-03-15T04:21:37.720Z,0
2017-03-15T04:22:47.981Z,0
2017-03-15T04:23:58.264Z,0
2017-03-15T04:25:08.535Z,0
2017-03-15T04:26:18.793Z,0
2017-03-15T04:27:29.061Z,0
2017-03-15T04:28:39.319Z,0
2017-03-15T04:29:49.265Z,0
2017-03-15T04:30:59.527Z,0
2017-03-15T04:32:09.789Z,0
2017-03-15T04:33:19.733Z,0
2017-03-15T04:34:29.365Z,0
2017-03-15T04:35:39.638Z,0
2017-03-15T04:36:49.903Z,0
2017-03-15T04:37:59.849Z,0
2017-03-15T04:39:10.111Z,0
2017-03-15T04:40:20.070Z,0
2017-03-15T04:41:30.332Z,0
2017-03-15T04:42:40.601Z,0
2017-03-15T04:43:50.551Z,0
2017-03-15T04:45:00.823Z,0
2017-03-15T04:46:11.099Z,0
2017-03-15T04:47:21.358Z,0
2017-03-15T04:48:31.619Z,0
2017-03-15T04:49:41.886Z,0
2017-03-15T04:50:52.151Z,0
2017-03-15T04:52:02.095Z,0
2017-03-15T04:53:12.361Z,0
2017-03-15T04:54:22.634Z,0
2017-03-15T04:55:32.892Z,0
2017-03-15T04:56:42.529Z,4
2017-03-15T04:57:52.492Z,4
2017-03-15T04:59:02.747Z,0
2017-03-15T05:00:12.690Z,4
2017-03-15T05:01:22.950Z,4
2017-03-15T05:02:33.212Z,4
2017-03-15T05:03:43.474Z,8
2017-03-15T05:04:53.743Z,8
2017-03-15T05:06:04.005Z,8
2017-03-15T05:07:14.280Z,8
2017-03-15T05:08:24.230Z,8
2017-03-15T05:09:34.498Z,12
2017-03-15T05:10:44.439Z,16
2017-03-15T05:11:54.699Z,20
2017-03-15T05:13:04.955Z,20
2017-03-15T05:14:15.220Z,24
2017-03-15T05:15:25.478Z,32
2017-03-15T05:16:35.745Z,32
2017-03-15T05:17:45.696Z,40
2017-03-15T05:18:55.330Z,48
2017-03-15T05:20:05.274Z,56
2017-03-15T05:21:15.533Z,60
2017-03-15T05:22:25.796Z,68
2017-03-15T05:23:36.064Z,80
2017-03-15T05:24:46.326Z,92
2017-03-15T05:25:56.270Z,104
2017-03-15T05:27:06.528Z,112
2017-03-15T05:28:16.479Z,128
2017-03-15T05:29:26.741Z,140
2017-03-15T05:30:36.693Z,156
2017-03-15T05:31:46.653Z,176
2017-03-15T05:32:56.603Z,192
2017-03-15T05:34:06.873Z,212
2017-03-15T05:35:17.139Z,228
2017-03-15T05:36:27.394Z,252
2017-03-15T05:37:37.337Z,272
2017-03-15T05:38:47.289Z,296
2017-03-15T05:39:57.542Z,324
2017-03-15T05:41:07.485Z,348
2017-03-15T05:42:17.744Z,376
2017-03-15T05:43:28.006Z,408
2017-03-15T05:44:37.949Z,436
2017-03-15T05:45:48.206Z,468
2017-03-15T05:46:57.855Z,504
2017-03-15T05:48:07.488Z,544
2017-03-15T05:49:17.755Z,580
2017-03-15T05:50:28.027Z,604
2017-03-15T05:51:37.981Z,632
2017-03-15T05:52:48.252Z,668
2017-03-15T05:53:57.883Z,708
2017-03-15T05:55:08.155Z,752
2017-03-15T05:56:18.106Z,788
2017-03-15T05:57:28.371Z,836
2017-03-15T05:58:38.626Z,888
2017-03-15T05:59:48.582Z,940
2017-03-15T06:00:58.842Z,984
2017-03-15T06:02:08.781Z,1028
2017-03-15T06:03:19.041Z,1072
2017-03-15T06:04:28.994Z,1108
2017-03-15T06:05:39.252Z,1144
2017-03-15T06:06:49.533Z,1180
2017-03-15T06:07:59.800Z,1216
2017-03-15T06:09:10.058Z,1256
2017-03-15T06:10:20.323Z,1292
2017-03-15T06:11:30.270Z,1320
2017-03-15T06:12:40.222Z,1352
2017-03-15T06:13:50.494Z,1388
2017-03-15T06:15:00.444Z,1424
2017-03-15T06:16:10.709Z,1452
2017-03-15T06:17:20.666Z,1488
2017-03-15T06:18:30.923Z,1520
2017-03-15T06:19:41.185Z,1552
2017-03-15T06:20:51.443Z,1588
2017-03-15T06:22:01.400Z,1616
2017-03-15T06:23:11.353Z,1648
2017-03-15T06:24:21.305Z,1676
2017-03-15T06:25:31.570Z,1704
2017-03-15T06:26:41.833Z,1736
2017-03-15T06:27:51.778Z,1764
2017-03-15T06:29:01.425Z,1792
2017-03-15T06:30:11.378Z,1820
2017-03-15T06:31:21.638Z,1852
2017-03-15T06:32:31.895Z,1876
2017-03-15T06:33:41.839Z,1904
2017-03-15T06:34:52.108Z,1932
2017-03-15T06:36:02.378Z,1956
2017-03-15T06:37:12.645Z,1984
2017-03-15T06:38:22.597Z,2012
2017-03-15T06:39:32.553Z,2032
2017-03-15T06:40:42.184Z,2056
2017-03-15T06:41:52.132Z,2084
2017-03-15T06:43:02.400Z,2104
2017-03-15T06:44:12.358Z,2132
2017-03-15T06:45:21.987Z,2152
2017-03-15T06:46:31.930Z,2180
2017-03-15T06:47:42.198Z,2204
2017-03-15T06:48:52.465Z,2228
2017-03-15T06:50:02.422Z,2248
2017-03-15T06:51:12.371Z,2276
2017-03-15T06:52:22.323Z,2296
2017-03-15T06:53:32.274Z,2316
2017-03-15T06:54:42.534Z,2336
2017-03-15T06:55:52.169Z,2360
2017-03-15T06:57:02.120Z,2380
2017-03-15T06:58:12.386Z,2404
2017-03-15T06:59:22.652Z,2424
2017-03-15T07:00:32.913Z,2444
2017-03-15T07:01:42.863Z,2460
2017-03-15T07:02:52.500Z,2484
2017-03-15T07:04:02.458Z,2504
2017-03-15T07:05:12.743Z,2520
2017-03-15T07:06:22.691Z,2544
2017-03-15T07:07:32.329Z,2560
2017-03-15T07:08:42.597Z,2580
2017-03-15T07:09:52.865Z,2604
2017-03-15T07:11:02.811Z,2616
2017-03-15T07:12:13.075Z,2636
2017-03-15T07:13:23.332Z,2660
2017-03-15T07:14:33.283Z,2680
2017-03-15T07:15:43.547Z,2696
2017-03-15T07:16:52.870Z,2712
2017-03-15T07:18:03.137Z,2732
2017-03-15T07:19:13.083Z,2752
2017-03-15T07:20:23.345Z,2768
2017-03-15T07:21:33.294Z,2788
2017-03-15T07:22:43.245Z,2800
2017-03-15T07:23:53.221Z,2824
2017-03-15T07:25:03.164Z,2840
2017-03-15T07:26:12.799Z,2856
2017-03-15T07:27:22.751Z,2876
2017-03-15T07:28:33.016Z,2892
2017-03-15T07:29:43.291Z,2912
2017-03-15T07:30:53.243Z,2928
2017-03-15T07:32:03.192Z,2944
2017-03-15T07:33:13.450Z,2960
2017-03-15T07:34:23.710Z,2980
2017-03-15T07:35:33.347Z,2996
2017-03-15T07:36:43.610Z,3012
2017-03-15T07:37:53.873Z,3028
2017-03-15T07:39:03.518Z,3044
2017-03-15T07:40:13.782Z,3060
2017-03-15T07:41:24.042Z,3072
2017-03-15T07:42:34.306Z,3088
2017-03-15T07:43:44.257Z,3108
2017-03-15T07:44:54.521Z,3120
2017-03-15T07:46:04.785Z,3140
2017-03-15T07:47:15.057Z,3152
2017-03-15T07:48:25.323Z,3168
2017-03-15T07:49:35.592Z,3188
2017-03-15T07:50:45.860Z,3196
2017-03-15T07:51:56.128Z,3208
2017-03-15T07:53:06.395Z,3228
2017-03-15T07:54:16.350Z,3240
2017-03-15T07:55:26.293Z,3264
2017-03-15T07:56:36.608Z,3284
2017-03-15T07:57:46.877Z,3288
2017-03-15T07:58:56.829Z,3316
2017-03-15T08:00:07.121Z,3328
2017-03-15T08:01:17.382Z,3352
2017-03-15T08:02:27.341Z,3372
2017-03-15T08:03:37.604Z,3376
2017-03-15T08:04:47.870Z,3392
2017-03-15T08:05:58.141Z,3420
2017-03-15T08:07:08.413Z,3452
2017-03-15T08:08:18.734Z,3464
2017-03-15T08:09:28.700Z,3476
2017-03-15T08:10:39.060Z,3476
2017-03-15T08:11:49.010Z,3508
2017-03-15T08:12:59.283Z,3532
2017-03-15T08:14:09.539Z,3552
2017-03-15T08:15:19.805Z,3568
2017-03-15T08:16:30.077Z,3636
2017-03-15T08:17:40.349Z,3656
2017-03-15T08:18:50.605Z,4044
2017-03-15T08:20:00.870Z,3984
2017-03-15T08:21:10.827Z,3956
2017-03-15T08:22:20.775Z,3772
2017-03-15T08:23:30.721Z,3796
2017-03-15T08:24:40.672Z,3820
2017-03-15T08:25:50.308Z,3868
2017-03-15T08:27:00.572Z,3788
2017-03-15T08:28:10.521Z,3968
2017-03-15T08:29:20.474Z,3856
2017-03-15T08:30:30.428Z,3912
2017-03-15T08:31:40.690Z,3900
2017-03-15T08:32:50.635Z,3896
2017-03-15T08:34:00.893Z,3920
2017-03-15T08:35:10.524Z,3948
2017-03-15T08:36:20.778Z,3964
2017-03-15T08:37:31.037Z,3960
2017-03-15T08:38:40.987Z,3988
2017-03-15T08:39:50.938Z,4024
2017-03-15T08:41:01.203Z,4040
2017-03-15T08:42:10.214Z,4076
2017-03-15T08:43:20.473Z,4092
2017-03-15T08:44:30.111Z,4124
2017-03-15T08:45:40.401Z,4148
2017-03-15T08:46:50.032Z,4176
2017-03-15T08:48:00.295Z,4188
2017-03-15T08:49:10.552Z,4212
2017-03-15T08:50:20.879Z,4232
2017-03-15T08:51:31.144Z,4244
2017-03-15T08:52:41.094Z,4248
2017-03-15T08:53:51.046Z,4252
2017-03-15T08:55:00.998Z,4260
2017-03-15T08:56:10.663Z,4276
2017-03-15T08:57:20.925Z,4288
2017-03-15T08:58:31.188Z,4296
2017-03-15T08:59:41.144Z,4316
2017-03-15T09:00:51.396Z,4340
2017-03-15T09:02:01.667Z,4348
2017-03-15T09:03:11.616Z,4356
2017-03-15T09:04:21.881Z,4376
2017-03-15T09:05:31.523Z,4388
2017-03-15T09:06:41.153Z,4400
2017-03-15T09:07:51.419Z,4412
2017-03-15T09:09:01.717Z,4420
2017-03-15T09:10:11.657Z,4432
2017-03-15T09:11:22.017Z,4440
2017-03-15T09:12:32.458Z,4444
2017-03-15T09:13:42.526Z,4456
2017-03-15T09:14:52.739Z,4460
2017-03-15T09:16:02.999Z,4476
2017-03-15T09:17:13.258Z,4488
2017-03-15T09:18:23.520Z,4492
2017-03-15T09:19:33.466Z,4508
2017-03-15T09:20:43.415Z,4512
2017-03-15T09:21:53.361Z,4524
2017-03-15T09:23:03.631Z,4536
2017-03-15T09:24:13.906Z,4548
2017-03-15T09:25:23.851Z,4560
2017-03-15T09:26:33.823Z,4564
2017-03-15T09:27:44.085Z,4572
2017-03-15T09:28:54.040Z,4584
2017-03-15T09:30:03.671Z,4592
2017-03-15T09:31:13.937Z,4604
2017-03-15T09:32:23.909Z,4620
2017-03-15T09:33:33.852Z,4632
2017-03-15T09:34:44.118Z,4648
2017-03-15T09:35:54.099Z,4656
2017-03-15T09:37:03.735Z,4664
2017-03-15T09:38:13.683Z,4676
2017-03-15T09:39:23.961Z,4680
2017-03-15T09:40:33.594Z,4700
2017-03-15T09:41:43.538Z,4704
2017-03-15T09:42:53.173Z,4712
2017-03-15T09:44:03.435Z,4724
2017-03-15T09:45:13.073Z,4736
2017-03-15T09:46:23.337Z,4748
2017-03-15T09:47:33.600Z,4752
2017-03-15T09:48:43.555Z,4772
2017-03-15T09:49:53.186Z,4788
2017-03-15T09:51:03.167Z,4792
2017-03-15T09:52:13.120Z,4796
2017-03-15T09:53:23.386Z,4812
2017-03-15T09:54:33.642Z,4832
2017-03-15T09:55:43.592Z,4852
2017-03-15T09:56:53.215Z,4864
2017-03-15T09:58:03.162Z,4868
2017-03-15T09:59:13.423Z,4868
2017-03-15T10:00:23.709Z,4880
2017-03-15T10:01:33.974Z,4880
2017-03-15T10:02:43.609Z,4896
2017-03-15T10:03:53.868Z,4900
2017-03-15T10:05:03.498Z,4916
2017-03-15T10:06:13.762Z,4920
2017-03-15T10:07:24.026Z,4932
2017-03-15T10:08:33.996Z,4944
2017-03-15T10:09:43.638Z,4960
2017-03-15T10:10:53.892Z,4964
2017-03-15T10:12:03.838Z,4976
2017-03-15T10:13:15.795Z,4992
2017-03-15T10:14:26.054Z,5000
2017-03-15T10:15:36.000Z,5004
2017-03-15T10:16:46.268Z,5008
2017-03-15T10:17:56.208Z,5016
2017-03-15T10:19:06.188Z,5032
2017-03-15T10:20:16.452Z,5044
2017-03-15T10:21:26.398Z,5052
2017-03-15T10:22:36.349Z,5064
2017-03-15T10:23:46.295Z,5060
2017-03-15T10:24:56.239Z,5076
2017-03-15T10:26:05.871Z,5076
2017-03-15T10:27:16.124Z,5088
2017-03-15T10:28:26.074Z,5100
2017-03-15T10:29:36.026Z,5108
2017-03-15T10:30:45.976Z,5116
2017-03-15T10:31:56.233Z,5120
2017-03-15T10:33:06.484Z,5124
2017-03-15T10:34:16.740Z,5144
2017-03-15T10:35:26.991Z,5144
2017-03-15T10:36:36.941Z,5164
2017-03-15T10:37:47.201Z,5156
2017-03-15T10:38:56.822Z,5164
2017-03-15T10:40:06.458Z,5172
2017-03-15T10:41:16.407Z,5168
2017-03-15T10:42:26.658Z,5188
2017-03-15T10:43:36.602Z,5176
2017-03-15T10:44:46.859Z,5192
2017-03-15T10:45:56.808Z,5208
2017-03-15T10:47:06.132Z,5208
2017-03-15T10:48:16.393Z,5212
2017-03-15T10:49:26.656Z,5232
2017-03-15T10:50:36.908Z,5240
2017-03-15T10:51:46.538Z,5244
2017-03-15T10:52:56.806Z,5260
2017-03-15T10:54:06.451Z,5280
2017-03-15T10:55:16.393Z,5276
2017-03-15T10:56:26.679Z,5280
2017-03-15T10:57:36.944Z,5296
2017-03-15T10:58:47.241Z,5316
2017-03-15T10:59:58.974Z,5324
2017-03-15T11:01:08.606Z,5352
2017-03-15T11:02:18.242Z,5384
2017-03-15T11:03:27.871Z,5404
2017-03-15T11:04:37.833Z,5416
2017-03-15T11:05:48.086Z,5440
2017-03-15T11:06:58.036Z,5452
2017-03-15T11:08:07.982Z,5504
2017-03-15T11:09:18.243Z,5556
2017-03-15T11:10:28.196Z,5680
2017-03-15T11:11:38.141Z,6352
2017-03-15T11:12:48.099Z,12632
2017-03-15T11:13:58.064Z,23904
2017-03-15T11:15:07.688Z,28064
2017-03-15T11:16:17.940Z,29952
2017-03-15T11:17:28.202Z,32288
2017-03-15T11:18:37.837Z,35008
2017-03-15T11:19:47.782Z,35136
2017-03-15T11:20:57.098Z,37728
2017-03-15T11:22:06.421Z,40032
2017-03-15T11:23:16.682Z,43168
2017-03-15T11:24:26.947Z,42688
2017-03-15T11:25:36.894Z,39328
2017-03-15T11:26:46.848Z,37504
2017-03-15T11:27:57.109Z,36928
2017-03-15T11:29:07.374Z,36320
2017-03-15T11:30:17.636Z,37280
2017-03-15T11:31:27.902Z,38944
2017-03-15T11:32:38.167Z,38240
2017-03-15T11:33:48.119Z,37312
2017-03-15T11:34:57.752Z,39424
2017-03-15T11:36:07.414Z,39680
2017-03-15T11:37:17.695Z,40320
2017-03-15T11:38:27.969Z,43744
2017-03-15T11:39:38.241Z,46368
2017-03-15T11:40:48.505Z,50080
2017-03-15T11:41:58.463Z,52480
2017-03-15T11:43:08.739Z,50816
2017-03-15T11:44:19.007Z,53248
2017-03-15T11:45:29.270Z,52192
2017-03-15T11:46:39.540Z,51104
2017-03-15T11:47:49.182Z,50944
2017-03-15T11:48:59.451Z,48768
2017-03-15T11:50:09.405Z,52736
2017-03-15T11:51:19.352Z,51328
2017-03-15T11:52:29.613Z,50592
2017-03-15T11:53:39.882Z,49696
2017-03-15T11:54:50.146Z,52544
2017-03-15T11:56:00.098Z,53664
2017-03-15T11:57:10.365Z,56864
2017-03-15T11:58:20.317Z,59200
2017-03-15T11:59:30.296Z,58272
2017-03-15T12:00:40.564Z,59072
2017-03-15T12:01:50.847Z,59680
2017-03-15T12:03:00.488Z,60544
2017-03-15T12:04:09.816Z,60320
2017-03-15T12:05:19.774Z,54784
2017-03-15T12:06:29.740Z,47040
2017-03-15T12:07:39.385Z,10556
2017-03-15T12:08:49.646Z,31520
2017-03-15T12:09:59.287Z,18784
2017-03-15T12:11:09.239Z,26368
2017-03-15T12:12:19.500Z,18016
2017-03-15T12:13:29.767Z,19712
2017-03-15T12:14:39.745Z,26016
2017-03-15T12:15:50.010Z,19264
2017-03-15T12:16:59.650Z,11728
2017-03-15T12:18:08.974Z,24768
2017-03-15T12:19:19.239Z,23232
2017-03-15T12:20:29.505Z,20288
2017-03-15T12:21:39.455Z,24992
2017-03-15T12:22:49.718Z,12868
2017-03-15T12:23:59.362Z,23360
2017-03-15T12:25:09.018Z,22592
2017-03-15T12:26:19.290Z,5444
2017-03-15T12:27:29.555Z,23008
2017-03-15T12:28:39.517Z,22336
2017-03-15T12:29:49.469Z,8656
2017-03-15T12:30:59.417Z,23136
2017-03-15T12:32:09.058Z,17792
2017-03-15T12:33:18.383Z,22304
2017-03-15T12:34:28.652Z,22080
2017-03-15T12:35:38.918Z,22176
2017-03-15T12:36:48.870Z,22432
2017-03-15T12:37:58.816Z,22816
2017-03-15T12:39:09.078Z,12068
2017-03-15T12:40:19.024Z,11852
2017-03-15T12:41:28.670Z,23520
2017-03-15T12:42:38.938Z,24608
2017-03-15T12:43:49.208Z,25216
2017-03-15T12:44:59.474Z,26848
2017-03-15T12:46:09.114Z,11568
2017-03-15T12:47:19.387Z,25440
2017-03-15T12:48:29.342Z,25440
2017-03-15T12:49:38.984Z,24192
2017-03-15T12:50:48.946Z,24288
2017-03-15T12:51:58.898Z,23776
2017-03-15T12:53:09.165Z,24448
2017-03-15T12:54:19.440Z,23552
2017-03-15T12:55:29.708Z,23648
2017-03-15T12:56:39.977Z,24448
2017-03-15T12:57:50.254Z,25024
2017-03-15T12:59:00.218Z,26176
2017-03-15T13:00:10.175Z,26368
2017-03-15T13:01:19.820Z,27808
2017-03-15T13:02:29.458Z,30464
2017-03-15T13:03:39.108Z,29504
2017-03-15T13:04:49.383Z,26176
2017-03-15T13:05:59.335Z,7276
2017-03-15T13:07:09.288Z,12912
2017-03-15T13:08:19.242Z,26656
2017-03-15T13:09:29.512Z,18528
2017-03-15T13:10:39.192Z,27072
2017-03-15T13:11:49.459Z,26048
2017-03-15T13:12:59.413Z,28928
2017-03-15T13:14:09.677Z,23872
2017-03-15T13:15:19.944Z,20672
2017-03-15T13:16:29.896Z,18336
2017-03-15T13:17:39.227Z,9472
2017-03-15T13:18:49.512Z,13472
2017-03-15T13:19:59.515Z,18208
2017-03-15T13:21:08.843Z,17504
2017-03-15T13:22:19.112Z,5152
2017-03-15T13:23:29.066Z,12352
2017-03-15T13:24:38.702Z,10168
2017-03-15T13:25:48.964Z,8040
2017-03-15T13:26:59.221Z,7012
2017-03-15T13:28:09.166Z,11176
2017-03-15T13:29:19.426Z,10796
2017-03-15T13:30:29.379Z,19008
2017-03-15T13:31:39.643Z,31040
2017-03-15T13:32:49.908Z,24800
2017-03-15T13:33:59.549Z,28032
2017-03-15T13:35:09.500Z,22048
2017-03-15T13:36:19.139Z,17440
2017-03-15T13:37:29.103Z,19776
2017-03-15T13:38:39.054Z,18976
2017-03-15T13:39:49.009Z,21216
2017-03-15T13:40:59.271Z,19296
2017-03-15T13:42:09.217Z,14764
2017-03-15T13:43:19.168Z,17312
2017-03-15T13:44:29.142Z,15448
2017-03-15T13:45:39.414Z,13092
2017-03-15T13:46:49.674Z,14872
2017-03-15T13:47:59.936Z,16992
2017-03-15T13:49:10.195Z,25216
2017-03-15T13:50:20.140Z,23008
2017-03-15T13:51:30.408Z,15784
2017-03-15T13:52:40.366Z,14236
2017-03-15T13:53:50.319Z,9456
2017-03-15T13:55:00.203Z,10420
2017-03-15T13:56:09.838Z,11348
2017-03-15T13:57:19.782Z,19968
2017-03-15T13:58:29.734Z,9200
2017-03-15T13:59:39.676Z,17984
2017-03-15T14:00:49.985Z,27136
2017-03-15T14:01:59.946Z,39328
2017-03-15T14:03:09.890Z,26080
2017-03-15T14:04:20.150Z,31648
2017-03-15T14:05:30.096Z,26560
2017-03-15T14:06:40.041Z,25728
2017-03-15T14:07:49.679Z,27904
2017-03-15T14:08:59.629Z,9140
2017-03-15T14:10:09.577Z,8364
2017-03-15T14:11:19.833Z,13224
2017-03-15T14:12:30.093Z,17152
2017-03-15T14:13:40.044Z,13252
2017-03-15T14:14:50.306Z,16032
2017-03-15T14:15:59.938Z,22048
2017-03-15T14:17:10.198Z,25376
2017-03-15T14:18:20.464Z,19744
2017-03-15T14:19:30.418Z,23680
2017-03-15T14:20:40.678Z,19232
2017-03-15T14:21:50.641Z,16832
2017-03-15T14:23:00.899Z,16416
2017-03-15T14:24:10.532Z,19872
2017-03-15T14:25:20.790Z,25088
2017-03-15T14:26:30.739Z,22496
2017-03-15T14:27:41.001Z,14596
2017-03-15T14:28:51.261Z,14720
2017-03-15T14:30:01.525Z,19328
2017-03-15T14:31:11.787Z,17792
2017-03-15T14:32:22.047Z,17344
2017-03-15T14:33:32.302Z,13112
2017-03-15T14:34:42.252Z,15840
2017-03-15T14:35:52.510Z,23808
2017-03-15T14:37:02.457Z,26592
2017-03-15T14:38:12.401Z,31808
2017-03-15T14:39:22.347Z,32384
2017-03-15T14:40:32.602Z,30592
2017-03-15T14:41:42.234Z,35296
2017-03-15T14:42:52.183Z,34720
2017-03-15T14:44:02.126Z,32672
2017-03-15T14:45:12.074Z,38208
2017-03-15T14:46:22.023Z,45440
2017-03-15T14:47:31.972Z,45984
2017-03-15T14:48:42.237Z,44768
2017-03-15T14:49:52.182Z,40064
2017-03-15T14:51:02.441Z,42528
2017-03-15T14:52:12.073Z,41888
2017-03-15T14:53:22.335Z,38944
2017-03-15T14:54:32.598Z,37280
2017-03-15T14:55:41.913Z,34592
2017-03-15T14:56:52.174Z,27712
2017-03-15T14:58:01.814Z,27136
2017-03-15T14:59:11.769Z,31552
2017-03-15T15:00:22.035Z,32928
2017-03-15T15:01:31.989Z,31712
2017-03-15T15:02:42.257Z,31936
2017-03-15T15:03:52.519Z,17984
2017-03-15T15:05:02.156Z,17984
2017-03-15T15:06:12.424Z,32736
2017-03-15T15:07:22.687Z,34112
2017-03-15T15:08:32.950Z,36640
2017-03-15T15:09:43.210Z,36928
2017-03-15T15:10:53.479Z,39328
2017-03-15T15:12:03.748Z,38272
2017-03-15T15:13:13.701Z,37440
2017-03-15T15:14:23.645Z,37536
2017-03-15T15:15:33.592Z,37536
2017-03-15T15:16:42.911Z,36192
2017-03-15T15:17:53.170Z,36896
2017-03-15T15:19:02.803Z,36384
2017-03-15T15:20:12.766Z,34752
2017-03-15T15:21:22.721Z,35840
2017-03-15T15:22:32.983Z,35712
2017-03-15T15:23:42.928Z,34976
2017-03-15T15:24:53.190Z,33312
2017-03-15T15:26:03.451Z,31552
2017-03-15T15:27:13.720Z,33504
2017-03-15T15:28:23.984Z,34304
2017-03-15T15:29:34.253Z,33568
2017-03-15T15:30:43.889Z,33536
2017-03-15T15:31:53.844Z,33056
2017-03-15T15:33:03.797Z,31840
2017-03-15T15:34:13.430Z,30368
2017-03-15T15:35:23.388Z,30624
2017-03-15T15:36:33.657Z,29536
2017-03-15T15:37:43.292Z,28512
2017-03-15T15:38:53.576Z,17408
2017-03-15T15:40:03.531Z,28800
2017-03-15T15:41:13.482Z,28416
2017-03-15T15:42:23.437Z,27104
2017-03-15T15:43:33.706Z,21696
2017-03-15T15:44:43.967Z,17472
2017-03-15T15:45:54.231Z,16576
2017-03-15T15:47:04.496Z,15808
2017-03-15T15:48:14.760Z,15872
2017-03-15T15:49:25.024Z,13792
2017-03-15T15:50:35.285Z,12092
2017-03-15T15:51:45.553Z,11020
2017-03-15T15:52:55.816Z,10112
2017-03-15T15:54:05.450Z,8884
2017-03-15T15:55:15.393Z,8628
2017-03-15T15:56:25.064Z,7472
2017-03-15T15:57:35.325Z,6068